createdAt,value
2018-03-22T00:02:34.455Z,17.23
2018-03-22T00:17:34.391Z,19.50
2018-03-22T00:32:34.360Z,18.40
2018-03-22T00:47:34.334Z,18.40
2018-03-22T01:02:34.660Z,18.30
2018-03-22T01:17:35.692Z,18.33
2018-03-22T01:32:34.535Z,18.13
2018-03-22T01:47:33.857Z,17.20
2018-03-22T02:02:40.912Z,17.90
2018-03-22T02:17:37.933Z,15.37
2018-03-22T02:32:34.889Z,15.27
2018-03-22T02:47:34.714Z,15.57
2018-03-22T03:02:36.106Z,15.10
2018-03-22T03:17:40.066Z,15.60
2018-03-22T03:32:36.054Z,13.33
2018-03-22T03:47:35.947Z,13.27
2018-03-22T04:02:34.364Z,12.93
2018-03-22T04:17:34.368Z,15.43
2018-03-22T04:32:34.327Z,13.03
2018-03-22T04:47:36.232Z,14.00
2018-03-22T05:02:34.550Z,15.13
2018-03-22T05:17:36.568Z,14.30
2018-03-22T05:32:36.438Z,16.93
2018-03-22T05:47:34.369Z,15.77
2018-03-22T06:02:34.758Z,21.63
2018-03-22T06:17:34.309Z,14.90
2018-03-22T06:32:37.727Z,17.70
2018-03-22T06:47:36.608Z,17.30
2018-03-22T07:02:35.007Z,18.97
2018-03-22T07:17:34.944Z,22.60
2018-03-22T07:32:34.894Z,23.45
2018-03-22T07:47:34.826Z,19.02
2018-03-22T08:02:34.261Z,18.23
2018-03-22T08:17:35.647Z,21.50
2018-03-22T08:32:37.166Z,16.15
2018-03-22T08:47:35.124Z,15.50
2018-03-22T09:02:34.470Z,16.65
2018-03-22T09:17:35.406Z,17.35
2018-03-22T09:32:37.333Z,17.87
2018-03-22T09:47:35.298Z,20.42
2018-03-22T10:02:34.756Z,16.40
2018-03-22T10:17:37.726Z,17.87
2018-03-22T10:32:34.526Z,14.52
2018-03-22T10:47:34.466Z,15.75
2018-03-22T11:02:39.999Z,12.55
2018-03-22T11:17:34.914Z,11.45
2018-03-22T11:32:36.740Z,8.70
2018-03-22T11:47:35.707Z,7.18
2018-03-22T12:02:35.073Z,7.82
2018-03-22T12:17:37.074Z,7.28
2018-03-22T12:32:35.013Z,6.45
2018-03-22T12:47:34.867Z,6.47
2018-03-22T13:02:35.304Z,7.50
2018-03-22T13:17:35.190Z,8.93
2018-03-22T13:32:35.134Z,12.05
2018-03-22T13:47:35.106Z,10.50
2018-03-22T14:02:36.509Z,12.45
2018-03-22T14:17:35.338Z,15.40
2018-03-22T14:32:35.318Z,12.27
2018-03-22T14:47:35.226Z,13.82
2018-03-22T15:02:34.718Z,9.50
2018-03-22T15:17:34.600Z,8.23
2018-03-22T15:32:34.583Z,5.80
2018-03-22T15:47:34.460Z,4.82
2018-03-22T16:02:34.836Z,4.20
2018-03-22T16:17:34.066Z,4.43
2018-03-22T16:32:36.812Z,4.20
2018-03-22T16:47:34.714Z,2.80
2018-03-22T17:02:35.084Z,3.08
2018-03-22T17:17:35.208Z,2.95
2018-03-22T17:32:35.018Z,3.25
2018-03-22T17:47:34.888Z,3.00
2018-03-22T18:02:37.385Z,3.05
2018-03-22T18:17:37.588Z,2.87
2018-03-22T18:32:37.305Z,2.70
2018-03-22T18:47:39.552Z,3.00
2018-03-22T19:02:36.498Z,3.12
2018-03-22T19:17:34.488Z,3.45
2018-03-22T19:32:36.574Z,2.85
2018-03-22T19:47:35.442Z,2.70
2018-03-22T20:02:38.110Z,4.03
2018-03-22T20:17:34.979Z,2.30
2018-03-22T20:32:37.419Z,1.80
2018-03-22T20:47:35.768Z,2.55
2018-03-22T21:02:34.550Z,4.10
2018-03-22T21:17:37.794Z,2.40
2018-03-22T21:32:39.049Z,3.53
2018-03-22T21:47:35.045Z,2.90
2018-03-22T22:02:40.172Z,2.60
2018-03-22T22:17:35.849Z,2.45
2018-03-22T22:32:35.212Z,3.42
2018-03-22T22:47:39.536Z,2.80
2018-03-22T23:02:36.139Z,2.37
2018-03-22T23:17:44.366Z,2.37
2018-03-22T23:32:49.199Z,3.33
2018-03-22T23:47:37.131Z,3.40
